Terminal Aerodrome Forecast
Issued by NWS

Home | Current Version | Previous Version | Text Only | Print | Product List | Glossary On
Versions: 1 2 3 4 5 6 7 8 9 10 11 12 13 14 15 16
000
FTUS44 KTSA 271100
TAFBVO
TAF
KBVO 271139Z 2712/2812 05011KT P6SM VCSH BKN035
     FM271500 06013G20KT P6SM BKN080
     FM271900 06014G22KT P6SM -RA BKN035 PROB30 2721/2724 4SM -TSRA
      BKN025CB
     FM280000 02005KT 5SM -RA BR BKN050=

USA.gov is the U.S. government's official web portal to all federal, state and local government web resources and services.